createdAt,value
2019-05-12T00:01:48.082Z,100736.14
2019-05-12T00:05:55.156Z,100738.13
2019-05-12T00:10:01.981Z,100743.75
2019-05-12T00:14:08.829Z,100748.85
2019-05-12T00:18:17.881Z,100752.31
2019-05-12T00:22:25.619Z,100752.31
2019-05-12T00:26:32.338Z,100760.05
2019-05-12T00:30:45.758Z,100760.88
2019-05-12T00:34:52.564Z,100760.88
2019-05-12T00:38:59.430Z,100774.05
2019-05-12T00:43:08.447Z,100782.94
2019-05-12T00:47:14.563Z,100787.72
2019-05-12T00:51:21.198Z,100791.34
2019-05-12T00:55:28.851Z,100798.77
2019-05-12T00:59:38.151Z,100797.42
2019-05-12T01:03:44.317Z,100806.32
2019-05-12T01:07:51.298Z,100813.58
2019-05-12T01:11:59.679Z,100817.52
2019-05-12T01:16:08.107Z,100816.83
2019-05-12T01:20:17.694Z,100823.21
2019-05-12T01:24:23.776Z,100839.33
2019-05-12T01:28:30.535Z,100843.12
2019-05-12T01:32:39.336Z,100851.17
2019-05-12T01:36:48.369Z,100858.09
2019-05-12T01:40:55.235Z,100859.84
2019-05-12T01:45:01.979Z,100865.58
2019-05-12T01:49:08.798Z,100870.68
2019-05-12T01:53:15.487Z,100879.23
2019-05-12T01:57:22.223Z,100883.12
2019-05-12T02:01:28.883Z,100890.70
2019-05-12T02:05:38.124Z,100898.07
2019-05-12T02:09:47.991Z,100889.31
2019-05-12T02:13:53.874Z,100891.24
2019-05-12T02:18:00.555Z,100898.52
2019-05-12T02:22:08.422Z,100903.25
2019-05-12T02:26:15.360Z,100913.13
2019-05-12T02:30:22.799Z,100923.00
2019-05-12T02:34:29.540Z,100928.72
2019-05-12T02:38:36.317Z,100926.91
2019-05-12T02:42:46.336Z,100938.71
2019-05-12T02:46:51.517Z,100940.03
2019-05-12T02:50:58.635Z,100936.86
2019-05-12T02:55:06.804Z,100937.18
2019-05-12T02:59:16.275Z,100940.88
2019-05-12T03:03:26.809Z,100948.89
2019-05-12T03:07:35.767Z,100952.84
2019-05-12T03:11:44.798Z,100965.45
2019-05-12T03:15:54.360Z,100968.13
2019-05-12T03:20:00.046Z,100969.70
2019-05-12T03:24:07.291Z,100975.95
2019-05-12T03:28:15.927Z,100982.09
2019-05-12T03:32:27.843Z,100987.91
2019-05-12T03:36:34.822Z,100990.81
2019-05-12T03:40:39.450Z,100999.20
2019-05-12T03:44:46.116Z,101006.02
2019-05-12T03:48:55.396Z,101027.00
2019-05-12T03:53:08.409Z,101044.25
2019-05-12T03:57:09.640Z,101053.30
2019-05-12T04:01:16.301Z,101064.37
2019-05-12T04:05:24.323Z,101068.16
2019-05-12T04:09:34.657Z,101074.16
2019-05-12T04:13:39.666Z,101077.21
2019-05-12T04:17:46.531Z,101085.09
2019-05-12T04:21:54.676Z,101089.19
2019-05-12T04:26:08.591Z,101103.66
2019-05-12T04:30:10.405Z,101116.59
2019-05-12T04:34:19.225Z,101123.56
2019-05-12T04:38:25.517Z,101137.58
2019-05-12T04:42:34.732Z,101136.19
2019-05-12T04:46:40.575Z,101149.11
2019-05-12T04:50:47.262Z,101158.09
2019-05-12T04:54:55.252Z,101166.38
2019-05-12T04:59:04.935Z,101168.86
2019-05-12T05:03:10.733Z,101169.78
2019-05-12T05:07:17.518Z,101185.34
2019-05-12T05:11:25.155Z,101181.62
2019-05-12T05:15:34.865Z,101191.16
2019-05-12T05:19:40.285Z,101205.84
2019-05-12T05:23:46.968Z,101223.52
2019-05-12T05:27:53.726Z,101231.39
2019-05-12T05:32:00.399Z,101238.31
2019-05-12T05:36:08.906Z,101246.77
2019-05-12T05:40:19.936Z,101257.41
2019-05-12T05:44:24.225Z,101264.78
2019-05-12T05:48:34.523Z,101264.11
2019-05-12T05:52:39.519Z,101275.38
2019-05-12T05:56:57.682Z,101283.84
2019-05-12T06:01:02.987Z,101283.80
2019-05-12T06:05:04.375Z,101289.16
2019-05-12T06:09:11.411Z,101301.59
2019-05-12T06:13:21.090Z,101313.89
2019-05-12T06:17:26.594Z,101315.75
2019-05-12T06:21:34.735Z,101314.48
2019-05-12T06:25:47.337Z,101315.86
2019-05-12T06:29:54.400Z,101319.06
2019-05-12T06:33:58.924Z,101324.47
2019-05-12T06:38:05.619Z,101328.91
2019-05-12T06:42:16.793Z,101336.16
2019-05-12T06:46:23.110Z,101337.25
2019-05-12T06:50:36.845Z,101351.81
2019-05-12T06:54:42.503Z,101354.59
2019-05-12T06:58:47.266Z,101362.00
2019-05-12T07:02:55.396Z,101374.97
2019-05-12T07:07:03.602Z,101377.70
2019-05-12T07:11:10.617Z,101379.27
2019-05-12T07:15:18.590Z,101387.61
2019-05-12T07:19:25.704Z,101389.97
2019-05-12T07:23:33.715Z,101405.95
2019-05-12T07:27:47.307Z,101402.94
2019-05-12T07:31:49.256Z,101405.84
2019-05-12T07:36:01.459Z,101418.45
2019-05-12T07:40:06.244Z,101417.04
2019-05-12T07:44:15.026Z,101433.14
2019-05-12T07:48:23.296Z,101439.64
2019-05-12T07:52:30.048Z,101436.39
2019-05-12T07:56:36.738Z,101436.70
2019-05-12T08:00:44.292Z,101444.33
2019-05-12T08:04:51.207Z,101453.40
2019-05-12T08:08:59.225Z,101454.88
2019-05-12T08:13:05.976Z,101476.41
2019-05-12T08:17:18.623Z,101482.36
2019-05-12T08:21:24.240Z,101486.59
2019-05-12T08:25:31.118Z,101488.41
2019-05-12T08:29:39.086Z,101492.21
2019-05-12T08:33:45.923Z,101478.13
2019-05-12T08:37:54.408Z,101485.34
2019-05-12T08:42:01.267Z,101490.83
2019-05-12T08:46:12.267Z,101499.56
2019-05-12T08:50:16.698Z,101506.72
2019-05-12T08:54:23.851Z,101505.61
2019-05-12T08:58:39.262Z,101512.22
2019-05-12T09:02:46.118Z,101502.56
2019-05-12T09:06:56.431Z,101518.62
2019-05-12T09:10:59.716Z,101522.45
2019-05-12T09:15:08.405Z,101529.73
2019-05-12T09:19:23.854Z,101528.81
2019-05-12T09:23:32.745Z,101533.09
2019-05-12T09:27:39.622Z,101541.14
2019-05-12T09:31:45.929Z,101539.17
2019-05-12T09:35:55.370Z,101535.94
2019-05-12T09:40:04.412Z,101532.77
2019-05-12T09:44:10.586Z,101539.86
2019-05-12T09:48:17.432Z,101538.95
2019-05-12T09:52:27.061Z,101544.30
2019-05-12T09:56:34.172Z,101547.92
2019-05-12T10:00:43.339Z,101541.35
2019-05-12T10:04:50.394Z,101545.76
2019-05-12T10:08:57.948Z,101560.30
2019-05-12T10:13:05.159Z,101556.57
2019-05-12T10:17:14.099Z,101564.75
2019-05-12T10:21:20.428Z,101564.34
2019-05-12T10:25:28.441Z,101556.98
2019-05-12T10:29:35.720Z,101545.44
2019-05-12T10:33:43.267Z,101550.95
2019-05-12T10:37:50.356Z,101550.05
2019-05-12T10:41:57.084Z,101548.47
2019-05-12T10:46:04.241Z,101548.30
2019-05-12T10:50:14.214Z,101553.72
2019-05-12T10:54:20.754Z,101549.98
2019-05-12T10:58:27.566Z,101560.15
2019-05-12T11:02:34.347Z,101555.80
2019-05-12T11:06:46.868Z,101565.25
2019-05-12T11:10:50.333Z,101553.50
2019-05-12T11:15:01.236Z,101566.06
2019-05-12T11:19:10.543Z,101563.19
2019-05-12T11:23:16.316Z,101554.63
2019-05-12T11:27:24.049Z,101563.30
2019-05-12T11:31:30.890Z,101573.40
2019-05-12T11:35:37.847Z,101573.02
2019-05-12T11:39:47.429Z,101578.00
2019-05-12T11:43:53.282Z,101573.08
2019-05-12T11:48:05.872Z,101567.41
2019-05-12T11:52:15.485Z,101583.59
2019-05-12T11:56:17.464Z,101586.06
2019-05-12T12:00:25.900Z,101583.23
2019-05-12T12:04:48.019Z,101594.79
2019-05-12T12:08:55.140Z,101586.73
2019-05-12T12:13:03.750Z,101584.90
2019-05-12T12:17:10.337Z,101594.64
2019-05-12T12:21:17.303Z,101591.50
2019-05-12T12:25:29.106Z,101594.75
2019-05-12T12:29:35.913Z,101603.77
2019-05-12T12:33:47.136Z,101599.61
2019-05-12T12:37:54.117Z,101600.35
2019-05-12T12:42:01.210Z,101601.44
2019-05-12T12:46:18.298Z,101605.56
2019-05-12T12:50:26.378Z,101603.13
2019-05-12T12:54:33.288Z,101592.55
2019-05-12T12:58:43.984Z,101596.63
2019-05-12T13:02:50.881Z,101602.52
2019-05-12T13:06:57.741Z,101603.64
2019-05-12T13:11:04.858Z,101608.93
2019-05-12T13:15:14.298Z,101607.08
2019-05-12T13:19:20.989Z,101597.73
2019-05-12T13:23:37.934Z,101594.16
2019-05-12T13:27:36.991Z,101588.91
2019-05-12T13:31:46.381Z,101587.34
2019-05-12T13:35:55.794Z,101593.86
2019-05-12T13:40:03.157Z,101589.37
2019-05-12T13:44:09.979Z,101583.22
2019-05-12T13:48:19.820Z,101586.63
2019-05-12T13:52:30.021Z,101583.06
2019-05-12T13:56:36.774Z,101583.42
2019-05-12T14:00:50.857Z,101587.88
2019-05-12T14:04:53.616Z,101577.30
2019-05-12T14:09:05.109Z,101592.70
2019-05-12T14:13:14.525Z,101581.36
2019-05-12T14:17:20.357Z,101581.28
2019-05-12T14:21:27.340Z,101591.22
2019-05-12T14:25:34.955Z,101587.09
2019-05-12T14:29:44.013Z,101580.97
2019-05-12T14:33:50.514Z,101582.33
2019-05-12T14:37:57.375Z,101585.17
2019-05-12T14:42:06.388Z,101585.41
2019-05-12T14:46:14.263Z,101576.27
2019-05-12T14:50:22.063Z,101588.52
2019-05-12T14:54:29.387Z,101580.98
2019-05-12T14:58:36.143Z,101587.73
2019-05-12T15:02:43.845Z,101591.22
2019-05-12T15:06:53.358Z,101597.28
2019-05-12T15:11:00.307Z,101593.45
2019-05-12T15:15:18.491Z,101608.11
2019-05-12T15:19:20.742Z,101595.13
2019-05-12T15:23:32.625Z,101604.92
2019-05-12T15:27:44.269Z,101605.95
2019-05-12T15:31:54.145Z,101604.59
2019-05-12T15:35:56.442Z,101609.44
2019-05-12T15:40:04.276Z,101606.22
2019-05-12T15:44:14.303Z,101603.02
2019-05-12T15:48:25.643Z,101607.48
2019-05-12T15:52:38.267Z,101604.97
2019-05-12T15:56:39.128Z,101603.84
2019-05-12T16:00:46.325Z,101612.89
2019-05-12T16:04:54.937Z,101608.47
2019-05-12T16:09:03.955Z,101606.14
2019-05-12T16:13:10.523Z,101610.92
2019-05-12T16:17:24.730Z,101614.62
2019-05-12T16:21:26.137Z,101617.08
2019-05-12T16:25:34.129Z,101618.94
2019-05-12T16:29:47.838Z,101618.73
2019-05-12T16:33:52.795Z,101627.44
2019-05-12T16:37:58.658Z,101631.55
2019-05-12T16:42:10.358Z,101633.70
2019-05-12T16:46:16.558Z,101630.37
2019-05-12T16:50:27.779Z,101640.66
2019-05-12T16:54:33.566Z,101634.69
2019-05-12T16:58:43.254Z,101640.11
2019-05-12T17:02:53.771Z,101650.52
2019-05-12T17:07:00.116Z,101647.85
2019-05-12T17:11:23.232Z,101654.31
2019-05-12T17:15:15.749Z,101666.61
2019-05-12T17:19:23.641Z,101663.23
2019-05-12T17:23:31.263Z,101659.55
2019-05-12T17:27:38.651Z,101664.12
2019-05-12T17:31:46.958Z,101663.29
2019-05-12T17:35:54.006Z,101670.71
2019-05-12T17:40:03.705Z,101673.06
2019-05-12T17:44:13.510Z,101675.12
2019-05-12T17:48:20.412Z,101687.86
2019-05-12T17:52:28.441Z,101693.77
2019-05-12T17:56:39.863Z,101690.70
2019-05-12T18:00:51.656Z,101687.06
2019-05-12T18:05:10.066Z,101698.83
2019-05-12T18:09:20.013Z,101698.73
2019-05-12T18:13:28.165Z,101701.95
2019-05-12T18:17:38.945Z,101704.29
2019-05-12T18:21:45.049Z,101703.80
2019-05-12T18:25:53.700Z,101706.48
2019-05-12T18:30:00.594Z,101714.56
2019-05-12T18:34:07.513Z,101711.93
2019-05-12T18:38:21.485Z,101713.12
2019-05-12T18:42:24.581Z,101724.98
2019-05-12T18:46:36.180Z,101730.99
2019-05-12T18:50:40.859Z,101730.79
2019-05-12T18:54:52.273Z,101738.02
2019-05-12T18:59:05.112Z,101735.41
2019-05-12T19:03:09.936Z,101747.41
2019-05-12T19:07:17.140Z,101753.73
2019-05-12T19:11:37.477Z,101760.72
2019-05-12T19:15:37.639Z,101766.38
2019-05-12T19:20:31.211Z,101774.02
2019-05-12T19:24:40.446Z,101788.46
2019-05-12T19:28:56.137Z,101796.60
2019-05-12T19:33:06.481Z,101803.66
2019-05-12T19:37:14.480Z,101811.62
2019-05-12T19:41:24.374Z,101814.41
2019-05-12T19:45:36.104Z,101817.88
2019-05-12T19:49:50.215Z,101826.26
2019-05-12T19:53:54.516Z,101829.20
2019-05-12T19:58:03.193Z,101826.19
2019-05-12T20:02:14.407Z,101827.66
2019-05-12T20:06:21.204Z,101829.62
2019-05-12T20:10:36.227Z,101830.36
2019-05-12T20:14:43.775Z,101832.64
2019-05-12T20:18:56.956Z,101841.23
2019-05-12T20:23:00.790Z,101839.23
2019-05-12T20:27:10.468Z,101840.73
2019-05-12T20:31:16.062Z,101841.84
2019-05-12T20:35:22.772Z,101845.12
2019-05-12T20:39:29.525Z,101844.05
2019-05-12T20:43:41.256Z,101842.86
2019-05-12T20:47:47.722Z,101846.75
2019-05-12T20:52:03.367Z,101857.80
2019-05-12T20:56:03.745Z,101853.95
2019-05-12T21:00:14.160Z,101852.70
2019-05-12T21:04:26.596Z,101846.52
2019-05-12T21:08:28.928Z,101857.89
2019-05-12T21:12:40.068Z,101861.98
2019-05-12T21:16:44.879Z,101861.42
2019-05-12T21:20:54.680Z,101867.04
2019-05-12T21:25:01.040Z,101868.98
2019-05-12T21:29:07.850Z,101874.39
2019-05-12T21:33:14.897Z,101875.42
2019-05-12T21:37:21.811Z,101869.59
2019-05-12T21:41:28.599Z,101878.36
2019-05-12T21:45:35.522Z,101880.05
2019-05-12T21:49:48.619Z,101880.20
2019-05-12T21:53:56.053Z,101877.27
2019-05-12T21:58:01.731Z,101882.02
2019-05-12T22:02:09.295Z,101880.20
2019-05-12T22:06:21.533Z,101874.45
2019-05-12T22:10:29.127Z,101871.91
2019-05-12T22:14:38.725Z,101876.86
2019-05-12T22:18:43.644Z,101889.41
2019-05-12T22:22:50.984Z,101891.22
2019-05-12T22:26:58.001Z,101894.09
2019-05-12T22:31:04.819Z,101905.16
2019-05-12T22:35:15.147Z,101896.23
2019-05-12T22:39:20.237Z,101903.36
2019-05-12T22:43:31.583Z,101905.94
2019-05-12T22:47:35.618Z,101903.94
2019-05-12T22:51:43.541Z,101906.17
2019-05-12T22:55:53.290Z,101910.48
2019-05-12T22:59:59.297Z,101917.80
2019-05-12T23:04:05.968Z,101914.78
2019-05-12T23:08:14.157Z,101916.11
2019-05-12T23:12:23.623Z,101913.36
2019-05-12T23:16:30.655Z,101913.09
2019-05-12T23:20:37.441Z,101914.75
2019-05-12T23:24:44.266Z,101913.70
2019-05-12T23:28:53.369Z,101916.50
2019-05-12T23:32:59.762Z,101915.41
2019-05-12T23:37:06.573Z,101907.41
2019-05-12T23:41:13.644Z,101912.20
2019-05-12T23:45:20.493Z,101911.74
2019-05-12T23:49:27.634Z,101914.31
2019-05-12T23:53:34.372Z,101915.33
2019-05-12T23:57:41.158Z,101919.70
